Austin Reinauer — WCX8055 — position and weather

sailwx.info

Track history (hours):
 
Tides and Currents Weather Stations Pressure Air Temp Water Temp Dewpoint Dewpoint Depression Visibility Wind Speed Wind Dir Waves Ship Positions

Austin Reinauer

Owner: REINAUER TRANSPORTATION CO, LP, STATEN ISLAND, NY. More information available from US FCC via Universal Licensing System and Coast Guard Vessel Documentation Center.

Last reported at 2017-Mar-23 12:32 UTC. Time now 2017-Mar-23 12:34 UTC.
Position N 40°55' W 073°55'.

Length 33 m; draft 6.7 m.

Type: . MMSI: 366739920.

Date/timePositionNaut miles runAvg speedWind from/ knotsBaromVisibWave heightAir tempDewpointWater temp
2017-Mar-23 12:32N 40°55' W 073°55'0 0.0
2017-Mar-23 06:29N 40°54' W 073°55'0 0.0
2017-Mar-23 05:29N 40°54' W 073°55'0 0.0
2017-Mar-23 04:28N 40°54' W 073°55'0 0.0
2017-Mar-23 03:31N 40°54' W 073°55'0 0.0
2017-Mar-23 02:31N 40°54' W 073°55'0 0.0
2017-Mar-23 01:31N 40°54' W 073°55'0 0.0
2017-Mar-23 00:31N 40°54' W 073°55'0 0.0
2017-Mar-22 23:31N 40°54' W 073°55'0 0.0
2017-Mar-22 22:28N 40°54' W 073°55'0 0.0
2017-Mar-22 21:28N 40°54' W 073°55'0 0.0
2017-Mar-22 20:28N 40°54' W 073°55'0 0.0
2017-Mar-22 19:31N 40°54' W 073°55'0 0.0
2017-Mar-22 18:28N 40°54' W 073°55'2 1.9
2017-Mar-22 17:33N 40°53' W 073°56'4 4.2
2017-Mar-22 16:32N 40°49' W 073°58'5 5.5
2017-Mar-22 15:33N 40°44' W 074°01'4 4.2
2017-Mar-22 14:31N 40°40' W 074°02'0 0.0
2017-Mar-22 13:31N 40°40' W 074°02'0 0.0
2017-Mar-22 12:25N 40°40' W 074°02'0 0.0
2017-Mar-22 11:31N 40°40' W 074°02'0 0.0
2017-Mar-22 10:31N 40°40' W 074°02'0 0.0
2017-Mar-22 09:31N 40°40' W 074°02'0 0.0
2017-Mar-22 08:31N 40°40' W 074°02'0 0.1
2017-Mar-22 07:31N 40°40' W 074°02'0 0.2
2017-Mar-22 06:31N 40°40' W 074°03'0 0.0
2017-Mar-22 05:31N 40°40' W 074°03'0 0.0
2017-Mar-22 04:31N 40°40' W 074°03'0 0.0
2017-Mar-22 03:31N 40°40' W 074°03'0 0.0
2017-Mar-22 02:33N 40°40' W 074°03'0 0.0
2017-Mar-22 01:33N 40°40' W 074°03'0 0.0
2017-Mar-22 00:33N 40°40' W 074°03'0 0.0
2017-Mar-21 23:30N 40°40' W 074°03'0 0.1
2017-Mar-21 22:33N 40°40' W 074°02'0 0.1
2017-Mar-21 21:33N 40°40' W 074°02'0 0.1
2017-Mar-21 20:32N 40°40' W 074°02'0 0.1
2017-Mar-21 19:32N 40°40' W 074°02'3 3.3
2017-Mar-21 18:32N 40°39' W 074°07'1 1.0
2017-Mar-21 17:33N 40°38' W 074°08'0 0.0
2017-Mar-21 16:30N 40°38' W 074°08'2 1.9
2017-Mar-21 15:33N 40°39' W 074°05'0 0.0
2017-Mar-21 14:33N 40°39' W 074°05'0 0.0
2017-Mar-21 13:33N 40°39' W 074°05'0 0.1
2017-Mar-21 12:33N 40°39' W 074°05'2 2.2
2017-Mar-21 11:29N 40°40' W 074°03'0 0.0
2017-Mar-21 10:32N 40°40' W 074°03'0 0.1
2017-Mar-21 09:32N 40°40' W 074°02'0 0.1
2017-Mar-21 08:32N 40°40' W 074°02'0 0.1
2017-Mar-21 07:32N 40°40' W 074°02'0 0.0
2017-Mar-21 06:32N 40°40' W 074°02'0 0.2
2017-Mar-21 05:32N 40°40' W 074°02'0 0.0
2017-Mar-21 04:32N 40°40' W 074°02'0 0.0
2017-Mar-21 03:32N 40°40' W 074°02'0 0.0
2017-Mar-21 02:32N 40°40' W 074°03'0 0.0
2017-Mar-21 01:32N 40°40' W 074°03'0 0.0
2017-Mar-21 00:32N 40°40' W 074°03'0 0.0
2017-Mar-20 23:29N 40°40' W 074°03'0 0.0
2017-Mar-20 22:32N 40°40' W 074°03'0 0.0
2017-Mar-20 21:32N 40°40' W 074°03'0 0.0
2017-Mar-20 20:32N 40°40' W 074°03'0 0.1
2017-Mar-20 19:32N 40°40' W 074°02'0 0.0
2017-Mar-20 18:32N 40°40' W 074°02'0 0.1
2017-Mar-20 17:32N 40°40' W 074°02'0 0.0
2017-Mar-20 16:32N 40°40' W 074°03'0 0.0
2017-Mar-20 15:32N 40°40' W 074°03'0 0.0
2017-Mar-20 14:32N 40°40' W 074°03'0 0.0
2017-Mar-20 13:29N 40°40' W 074°03'0 0.0
2017-Mar-20 12:32N 40°40' W 074°03'0 0.0
2017-Mar-20 11:32N 40°40' W 074°03'0 0.0
2017-Mar-20 10:26N 40°40' W 074°03'0 0.0
2017-Mar-20 09:32N 40°40' W 074°03'0 0.0
2017-Mar-20 08:32N 40°40' W 074°03'0 0.1
2017-Mar-20 07:32N 40°40' W 074°02'0 0.1
2017-Mar-20 06:32N 40°40' W 074°02'0 0.1
2017-Mar-20 05:32N 40°40' W 074°03'0 0.1
2017-Mar-20 04:31N 40°40' W 074°03'0 0.0
2017-Mar-20 03:31N 40°40' W 074°03'0 0.0
2017-Mar-20 02:31N 40°40' W 074°02'0 0.0
2017-Mar-20 01:31N 40°40' W 074°03'0 0.0
2017-Mar-20 00:31N 40°40' W 074°03'0 0.0
2017-Mar-19 23:31N 40°40' W 074°03'0 0.0
2017-Mar-19 22:28N 40°40' W 074°03'0 0.0
2017-Mar-19 21:31N 40°40' W 074°03'0 0.0
2017-Mar-19 20:31N 40°40' W 074°03'0 0.0
2017-Mar-19 19:31N 40°40' W 074°03'0 0.0
2017-Mar-19 18:31N 40°40' W 074°02'0 0.0
2017-Mar-19 17:31N 40°40' W 074°03'0 0.0
2017-Mar-19 16:31N 40°40' W 074°03'0 0.0
2017-Mar-19 15:31N 40°40' W 074°03'0 0.0
2017-Mar-19 14:31N 40°40' W 074°03'0 0.0
2017-Mar-19 13:31N 40°40' W 074°03'0 0.0
2017-Mar-19 12:28N 40°40' W 074°03'0 0.0
2017-Mar-19 11:31N 40°40' W 074°03'0 0.0
2017-Mar-19 10:28N 40°40' W 074°03'0 0.0
2017-Mar-19 09:31N 40°40' W 074°03'0 0.0
2017-Mar-19 08:31N 40°40' W 074°03'0 0.0
2017-Mar-19 07:31N 40°40' W 074°03'0 0.2
2017-Mar-19 06:33N 40°40' W 074°02'4 3.8
2017-Mar-19 05:29N 40°36' W 074°01'0 0.0
2017-Mar-19 04:32N 40°36' W 074°01'0 0.0
2017-Mar-19 03:32N 40°36' W 074°01'0 0.0
2017-Mar-19 02:31N 40°36' W 074°01'0 0.1
2017-Mar-19 01:19N 40°35' W 074°01'3 3.5
2017-Mar-19 00:33N 40°38' W 074°03'1110.5
2017-Mar-18 23:33N 40°47' W 073°55'6310.5
2017-Mar-18 17:33N 41°07' W 072°37'1212.2
2017-Mar-18 16:33N 41°11' W 072°21'4710.4
2017-Mar-18 12:03N 41°27' W 071°23'510.2
2017-Mar-18 11:33N 41°32' W 071°20'9 9.5
2017-Mar-18 10:33N 41°40' W 071°13'1 0.8
2017-Mar-18 09:31N 41°40' W 071°12'0 0.0
2017-Mar-18 07:12N 41°40' W 071°12'0 0.0
2017-Mar-18 06:30N 41°40' W 071°12'0 0.0
2017-Mar-18 05:19N 41°40' W 071°12'0 0.0
2017-Mar-18 04:24N 41°40' W 071°12'0 0.0
2017-Mar-18 03:07N 41°40' W 071°12'0 0.0
2017-Mar-18 00:30N 41°40' W 071°12'0 0.0
2017-Mar-17 23:31N 41°40' W 071°12'2 1.7
2017-Mar-17 22:33N 41°40' W 071°14'49 7.0
2017-Mar-17 15:34N 41°14' W 072°10'9 8.9
2017-Mar-17 14:34N 41°11' W 072°21'  
2017-Mar-14 21:26N 40°59' W 073°33'8 2.7
2017-Mar-14 18:29N 40°53' W 073°40'0 0.0
2017-Mar-14 17:33N 40°53' W 073°40'0 0.0
2017-Mar-14 16:33N 40°53' W 073°41'0 0.0
2017-Mar-14 15:32N 40°53' W 073°41'0 0.0
2017-Mar-14 14:32N 40°53' W 073°41'0 0.0
2017-Mar-14 13:33N 40°53' W 073°41'0 0.0
2017-Mar-14 12:33N 40°53' W 073°41'0 0.0
2017-Mar-14 11:32N 40°53' W 073°41'0 0.0
2017-Mar-14 10:30N 40°53' W 073°41'0 0.0
2017-Mar-14 09:27N 40°53' W 073°41'0 0.0
2017-Mar-14 08:25N 40°53' W 073°41'0 0.0
2017-Mar-14 07:33N 40°53' W 073°41'3 2.7
2017-Mar-14 06:33N 40°52' W 073°44'7 6.9
2017-Mar-14 05:33N 40°48' W 073°51'5 5.3
2017-Mar-14 04:33N 40°46' W 073°57'7 7.0
2017-Mar-14 03:33N 40°40' W 074°02'8 7.7
2017-Mar-14 02:33N 40°38' W 074°12'6 4.1
2017-Mar-14 01:12N 40°33' W 074°15'0 0.3
2017-Mar-14 00:29N 40°33' W 074°15'  
Track history (hours):
 
Tides and Currents Weather Stations Pressure Air Temp Water Temp Dewpoint Dewpoint Depression Visibility Wind Speed Wind Dir Waves Ship Positions

Austin Reinauer

Owner: REINAUER TRANSPORTATION CO, LP, STATEN ISLAND, NY. More information available from US FCC via Universal Licensing System and Coast Guard Vessel Documentation Center.

Last reported at 2017-Mar-23 12:32 UTC. Time now 2017-Mar-23 12:34 UTC.
Position N 40°55' W 073°55'.

Length 33 m; draft 6.7 m.

Type: . MMSI: 366739920.

Date/timePositionNaut miles runAvg speedWind from/ knotsBaromVisibWave heightAir tempDewpointWater temp
2017-Mar-23 12:32N 40°55' W 073°55'0 0.0
2017-Mar-23 06:29N 40°54' W 073°55'0 0.0
2017-Mar-23 05:29N 40°54' W 073°55'0 0.0
2017-Mar-23 04:28N 40°54' W 073°55'0 0.0
2017-Mar-23 03:31N 40°54' W 073°55'0 0.0
2017-Mar-23 02:31N 40°54' W 073°55'0 0.0
2017-Mar-23 01:31N 40°54' W 073°55'0 0.0
2017-Mar-23 00:31N 40°54' W 073°55'0 0.0
2017-Mar-22 23:31N 40°54' W 073°55'0 0.0
2017-Mar-22 22:28N 40°54' W 073°55'0 0.0
2017-Mar-22 21:28N 40°54' W 073°55'0 0.0
2017-Mar-22 20:28N 40°54' W 073°55'0 0.0
2017-Mar-22 19:31N 40°54' W 073°55'0 0.0
2017-Mar-22 18:28N 40°54' W 073°55'2 1.9
2017-Mar-22 17:33N 40°53' W 073°56'4 4.2
2017-Mar-22 16:32N 40°49' W 073°58'5 5.5
2017-Mar-22 15:33N 40°44' W 074°01'4 4.2
2017-Mar-22 14:31N 40°40' W 074°02'0 0.0
2017-Mar-22 13:31N 40°40' W 074°02'0 0.0
2017-Mar-22 12:25N 40°40' W 074°02'0 0.0
2017-Mar-22 11:31N 40°40' W 074°02'0 0.0
2017-Mar-22 10:31N 40°40' W 074°02'0 0.0
2017-Mar-22 09:31N 40°40' W 074°02'0 0.0
2017-Mar-22 08:31N 40°40' W 074°02'0 0.1
2017-Mar-22 07:31N 40°40' W 074°02'0 0.2
2017-Mar-22 06:31N 40°40' W 074°03'0 0.0
2017-Mar-22 05:31N 40°40' W 074°03'0 0.0
2017-Mar-22 04:31N 40°40' W 074°03'0 0.0
2017-Mar-22 03:31N 40°40' W 074°03'0 0.0
2017-Mar-22 02:33N 40°40' W 074°03'0 0.0
2017-Mar-22 01:33N 40°40' W 074°03'0 0.0
2017-Mar-22 00:33N 40°40' W 074°03'0 0.0
2017-Mar-21 23:30N 40°40' W 074°03'0 0.1
2017-Mar-21 22:33N 40°40' W 074°02'0 0.1
2017-Mar-21 21:33N 40°40' W 074°02'0 0.1
2017-Mar-21 20:32N 40°40' W 074°02'0 0.1
2017-Mar-21 19:32N 40°40' W 074°02'3 3.3
2017-Mar-21 18:32N 40°39' W 074°07'1 1.0
2017-Mar-21 17:33N 40°38' W 074°08'0 0.0
2017-Mar-21 16:30N 40°38' W 074°08'2 1.9
2017-Mar-21 15:33N 40°39' W 074°05'0 0.0
2017-Mar-21 14:33N 40°39' W 074°05'0 0.0
2017-Mar-21 13:33N 40°39' W 074°05'0 0.1
2017-Mar-21 12:33N 40°39' W 074°05'2 2.2
2017-Mar-21 11:29N 40°40' W 074°03'0 0.0
2017-Mar-21 10:32N 40°40' W 074°03'0 0.1
2017-Mar-21 09:32N 40°40' W 074°02'0 0.1
2017-Mar-21 08:32N 40°40' W 074°02'0 0.1
2017-Mar-21 07:32N 40°40' W 074°02'0 0.0
2017-Mar-21 06:32N 40°40' W 074°02'0 0.2
2017-Mar-21 05:32N 40°40' W 074°02'0 0.0
2017-Mar-21 04:32N 40°40' W 074°02'0 0.0
2017-Mar-21 03:32N 40°40' W 074°02'0 0.0
2017-Mar-21 02:32N 40°40' W 074°03'0 0.0
2017-Mar-21 01:32N 40°40' W 074°03'0 0.0
2017-Mar-21 00:32N 40°40' W 074°03'0 0.0
2017-Mar-20 23:29N 40°40' W 074°03'0 0.0
2017-Mar-20 22:32N 40°40' W 074°03'0 0.0
2017-Mar-20 21:32N 40°40' W 074°03'0 0.0
2017-Mar-20 20:32N 40°40' W 074°03'0 0.1
2017-Mar-20 19:32N 40°40' W 074°02'0 0.0
2017-Mar-20 18:32N 40°40' W 074°02'0 0.1
2017-Mar-20 17:32N 40°40' W 074°02'0 0.0
2017-Mar-20 16:32N 40°40' W 074°03'0 0.0
2017-Mar-20 15:32N 40°40' W 074°03'0 0.0
2017-Mar-20 14:32N 40°40' W 074°03'0 0.0
2017-Mar-20 13:29N 40°40' W 074°03'0 0.0
2017-Mar-20 12:32N 40°40' W 074°03'0 0.0
2017-Mar-20 11:32N 40°40' W 074°03'0 0.0
2017-Mar-20 10:26N 40°40' W 074°03'0 0.0
2017-Mar-20 09:32N 40°40' W 074°03'0 0.0
2017-Mar-20 08:32N 40°40' W 074°03'0 0.1
2017-Mar-20 07:32N 40°40' W 074°02'0 0.1
2017-Mar-20 06:32N 40°40' W 074°02'0 0.1
2017-Mar-20 05:32N 40°40' W 074°03'0 0.1
2017-Mar-20 04:31N 40°40' W 074°03'0 0.0
2017-Mar-20 03:31N 40°40' W 074°03'0 0.0
2017-Mar-20 02:31N 40°40' W 074°02'0 0.0
2017-Mar-20 01:31N 40°40' W 074°03'0 0.0
2017-Mar-20 00:31N 40°40' W 074°03'0 0.0
2017-Mar-19 23:31N 40°40' W 074°03'0 0.0
2017-Mar-19 22:28N 40°40' W 074°03'0 0.0
2017-Mar-19 21:31N 40°40' W 074°03'0 0.0
2017-Mar-19 20:31N 40°40' W 074°03'0 0.0
2017-Mar-19 19:31N 40°40' W 074°03'0 0.0
2017-Mar-19 18:31N 40°40' W 074°02'0 0.0
2017-Mar-19 17:31N 40°40' W 074°03'0 0.0
2017-Mar-19 16:31N 40°40' W 074°03'0 0.0
2017-Mar-19 15:31N 40°40' W 074°03'0 0.0
2017-Mar-19 14:31N 40°40' W 074°03'0 0.0
2017-Mar-19 13:31N 40°40' W 074°03'0 0.0
2017-Mar-19 12:28N 40°40' W 074°03'0 0.0
2017-Mar-19 11:31N 40°40' W 074°03'0 0.0
2017-Mar-19 10:28N 40°40' W 074°03'0 0.0
2017-Mar-19 09:31N 40°40' W 074°03'0 0.0
2017-Mar-19 08:31N 40°40' W 074°03'0 0.0
2017-Mar-19 07:31N 40°40' W 074°03'0 0.2
2017-Mar-19 06:33N 40°40' W 074°02'4 3.8
2017-Mar-19 05:29N 40°36' W 074°01'0 0.0
2017-Mar-19 04:32N 40°36' W 074°01'0 0.0
2017-Mar-19 03:32N 40°36' W 074°01'0 0.0
2017-Mar-19 02:31N 40°36' W 074°01'0 0.1
2017-Mar-19 01:19N 40°35' W 074°01'3 3.5
2017-Mar-19 00:33N 40°38' W 074°03'1110.5
2017-Mar-18 23:33N 40°47' W 073°55'6310.5
2017-Mar-18 17:33N 41°07' W 072°37'1212.2
2017-Mar-18 16:33N 41°11' W 072°21'4710.4
2017-Mar-18 12:03N 41°27' W 071°23'510.2
2017-Mar-18 11:33N 41°32' W 071°20'9 9.5
2017-Mar-18 10:33N 41°40' W 071°13'1 0.8
2017-Mar-18 09:31N 41°40' W 071°12'0 0.0
2017-Mar-18 07:12N 41°40' W 071°12'0 0.0
2017-Mar-18 06:30N 41°40' W 071°12'0 0.0
2017-Mar-18 05:19N 41°40' W 071°12'0 0.0
2017-Mar-18 04:24N 41°40' W 071°12'0 0.0
2017-Mar-18 03:07N 41°40' W 071°12'0 0.0
2017-Mar-18 00:30N 41°40' W 071°12'0 0.0
2017-Mar-17 23:31N 41°40' W 071°12'2 1.7
2017-Mar-17 22:33N 41°40' W 071°14'49 7.0
2017-Mar-17 15:34N 41°14' W 072°10'9 8.9
2017-Mar-17 14:34N 41°11' W 072°21'  
2017-Mar-14 21:26N 40°59' W 073°33'8 2.7
2017-Mar-14 18:29N 40°53' W 073°40'0 0.0
2017-Mar-14 17:33N 40°53' W 073°40'0 0.0
2017-Mar-14 16:33N 40°53' W 073°41'0 0.0
2017-Mar-14 15:32N 40°53' W 073°41'0 0.0
2017-Mar-14 14:32N 40°53' W 073°41'0 0.0
2017-Mar-14 13:33N 40°53' W 073°41'0 0.0
2017-Mar-14 12:33N 40°53' W 073°41'0 0.0
2017-Mar-14 11:32N 40°53' W 073°41'0 0.0
2017-Mar-14 10:30N 40°53' W 073°41'0 0.0
2017-Mar-14 09:27N 40°53' W 073°41'0 0.0
2017-Mar-14 08:25N 40°53' W 073°41'0 0.0
2017-Mar-14 07:33N 40°53' W 073°41'3 2.7
2017-Mar-14 06:33N 40°52' W 073°44'7 6.9
2017-Mar-14 05:33N 40°48' W 073°51'5 5.3
2017-Mar-14 04:33N 40°46' W 073°57'7 7.0
2017-Mar-14 03:33N 40°40' W 074°02'8 7.7
2017-Mar-14 02:33N 40°38' W 074°12'6 4.1
2017-Mar-14 01:12N 40°33' W 074°15'0 0.3
2017-Mar-14 00:29N 40°33' W 074°15'  

Dump ship's entire track history